Airfield :







YOU CAN JOIN US ON...

 
LOGIN :

Register | Disclaimer

   EN    FR    IT 

 









Legend :    VFR   Marginal VFR   IFR   Intensive IFR   Very Intensive IFR
Visi :
Ceiling :
>= 8 km
>= 3000ft
5 to 8 km
1000 to 3000 ft
1500m to 5 km
500 to 1000 ft
800 to 1500m
200 to 500 ft
< 800m
< 200 ft
Symbols :   Thunderstorms  Fog  Heavy snow  Heavy precipitations  Wind > 20 kt







- Airport Elevation : 1709 ft
- IATA code : YKL


CYKL - Schefferville

CURRENT METAR :
  • 241300Z AUTO 30014G23KT 9SM BKN030 BKN035 OVC050 M02/M06 A3032 RMK SLP303

EXPIRED METARs :
  • 241200Z AUTO 31016G23KT 9SM OVC032 M02/M06 A3029 RMK SLP293
  • 241143Z AUTO 31014G19KT 9SM FEW020 BKN034 M03/M05 A3028 RMK SLP289
  • 241132Z AUTO 31011G18KT 7SM -SN SCT020 SCT025 BKN032 M03/M05 A3028 RMK SLP288
  • 241123Z AUTO 31010KT 7SM -SN FEW015 SCT020 OVC028 M03/M05 A3027 RMK SLP286
  • 241116Z AUTO 32010G16KT 5SM -SN SCT017 BKN023 OVC028 M03/M05 A3027 RMK SLP285
  • 241107Z AUTO 33009G16KT 3SM -SN SCT017 BKN025 BKN037 M03/M05 A3027 RMK SLP284
  • 241039Z AUTO 31012G17KT 9SM -SN FEW021 M03/M05 A3025 RMK SLP277
  • 241020Z AUTO 31011G18KT 9SM SCT021 BKN027 M03/M05 A3024 RMK SLP274
  • 241011Z AUTO 31012G21KT 9SM SCT018 BKN025 M03/M05 A3023 RMK SLP272

TAF TAF CYKL
Valid from the 24 at 08:00 until the 24 at 20:00 UTC


240739Z 2408/2420 31015G25KT P6SM BKN025
TEMPO 2408/2420 4SM -SHSN BKN020 RMK FCST BASED ON AUTO OBS. NXT FCST BY 241400Z
CZUL FIR / North America



MET'MAP, your aeronautical weather chart ! - Copyright ORBIFLY December 2007 - Disclaimer

ORBIFLY MET'MAP TEAM :

Programming & Development : Alexandra Zaïnal
Concept & Development : Baudouin d'Aumeries
Co-Development & Prog : Marc-Olivier Méhu
Technical & hardware support : Manuel Goepfert

Contact : metmap@orbifly.com




SOURCES & CREDITS :

   NOAA